Terminal Aerodrome Forecast
Issued by NWS

Home | Current Version | Previous Version | Text Only | Print | Product List | Glossary On
Versions: 1 2 3 4 5 6 7 8 9 10 11 12 13 14 15 16
000
FTUS45 KFGZ 060425 AAB
TAFPRC
TAF AMD
KPRC 060425Z 0604/0624 VRB06KT P6SM SCT080 BKN110
      TEMPO 0604/0606 VRB12G25KT 5SM -TSRA SCT035 BKN070CB
     FM061900 26009KT P6SM SCT080 BKN110 PROB30 0619/0624 VRB10G20KT
      TSRA BKN070CB=

USA.gov is the U.S. government's official web portal to all federal, state and local government web resources and services.